Home > Products > Valid Products > TAF

000
FTUS43 KGRR 240540
TAFGRR
TAF
KGRR 240540Z 2406/2506 18004KT P6SM SCT250
     FM241600 22011KT P6SM SCT250
     FM250000 20005KT P6SM BKN080=



000
FTUS43 KGRR 240540
TAFAZO
TAF
KAZO 240540Z 2406/2506 20006KT P6SM SCT250=



000
FTUS43 KGRR 240540
TAFJXN
TAF
KJXN 240540Z 2406/2506 21005KT P6SM SCT250=



000
FTUS43 KGRR 240540
TAFBTL
TAF
KBTL 240540Z 2406/2506 18003KT P6SM SCT250
     FM241700 22011KT P6SM SCT250
     FM242300 21005KT P6SM BKN080=



000
FTUS43 KGRR 240540
TAFLAN
TAF
KLAN 240540Z 2406/2506 18003KT P6SM SCT250
     FM241600 22010KT P6SM SCT250
     FM242300 21005KT P6SM BKN080=



000
FTUS43 KGRR 232340
TAFLAN
TAF
KLAN 232340Z 2400/2424 16006KT P6SM SKC
     FM241500 22010KT P6SM FEW250=



000
FTUS43 KGRR 232340
TAFGRR
TAF
KGRR 232340Z 2400/2424 20008KT P6SM FEW250
     FM241500 21010KT P6SM FEW250=



000
FTUS43 KGRR 232340
TAFBTL
TAF
KBTL 232340Z 2400/2424 19007KT P6SM SKC
     FM241400 21010KT P6SM SCT250=



000
FTUS43 KGRR 232340
TAFAZO
TAF
KAZO 232340Z 2400/2424 19007KT P6SM SKC
     FM241400 20010KT P6SM FEW250=



000
FTUS43 KGRR 232340
TAFMKG
TAF
KMKG 232340Z 2400/2424 22006KT P6SM SCT250
     FM240400 17009KT P6SM SKC
     FM241100 20010KT P6SM FEW250=



000
FTUS43 KGRR 232340
TAFJXN
TAF
KJXN 232340Z 2400/2424 19006KT P6SM SKC
     FM241500 22010KT P6SM SCT250=



000
FTUS43 KGRR 231740
TAFJXN
TAF
KJXN 231740Z 2318/2418 19004KT P6SM SKC=



000
FTUS43 KGRR 231740
TAFLAN
TAF
KLAN 231740Z 2318/2418 18005KT P6SM SKC=



000
FTUS43 KGRR 231740
TAFMKG
TAF
KMKG 231740Z 2318/2418 22011KT P6SM SKC
     FM240000 17004KT P6SM SKC
     FM241500 20010KT P6SM BKN100=



000
FTUS43 KGRR 231740
TAFBTL
TAF
KBTL 231740Z 2318/2418 18005KT P6SM SKC=



000
FTUS43 KGRR 231740
TAFGRR
TAF
KGRR 231740Z 2318/2418 17006KT P6SM SKC=



000
FTUS43 KGRR 231740
TAFAZO
TAF
KAZO 231740Z 2318/2418 18005KT P6SM SKC=



000
FTUS43 KGRR 231121
TAFJXN
TAF
KJXN 231121Z 2312/2412 19004KT P6SM SKC=



000
FTUS43 KGRR 231121
TAFMKG
TAF
KMKG 231121Z 2312/2412 17004KT P6SM SKC
     FM231700 22010KT P6SM SKC
     FM240000 17004KT P6SM SKC=



000
FTUS43 KGRR 231121
TAFAZO
TAF
KAZO 231121Z 2312/2412 18005KT P6SM SKC=



000
FTUS43 KGRR 231121
TAFBTL
TAF
KBTL 231121Z 2312/2412 18005KT P6SM SKC=



000
FTUS43 KGRR 231121
TAFLAN
TAF
KLAN 231121Z 2312/2412 18005KT P6SM SKC=



000
FTUS43 KGRR 231121
TAFGRR
TAF
KGRR 231121Z 2312/2412 17006KT P6SM SKC=



000
FTUS43 KGRR 230530
TAFAZO
TAF
KAZO 230530Z 2306/2406 VRB03KT P6SM SKC
     FM231700 17006KT P6SM FEW050=



000
FTUS43 KGRR 230530
TAFLAN
TAF
KLAN 230530Z 2306/2406 VRB03KT P6SM SKC
     FM231700 18006KT P6SM FEW050=



000
FTUS43 KGRR 230530
TAFGRR
TAF
KGRR 230530Z 2306/2406 VRB03KT P6SM SKC
     FM231700 19008KT P6SM FEW050=



000
FTUS43 KGRR 230530
TAFBTL
TAF
KBTL 230530Z 2306/2406 VRB03KT P6SM SKC
     FM231700 17006KT P6SM FEW050=



000
FTUS43 KGRR 230530
TAFJXN
TAF
KJXN 230530Z 2306/2406 VRB03KT P6SM SKC
     FM231700 18006KT P6SM FEW050=



000
FTUS43 KGRR 230530
TAFMKG
TAF
KMKG 230530Z 2306/2406 VRB03KT P6SM SKC
     FM231700 21012KT P6SM SKC
     FM240000 19004KT P6SM SKC=



000
FTUS43 KGRR 220044 AAA
TAFMKG
TAF AMD
KMKG 220044Z 2201/2224 32008KT P6SM FEW100 SCT250
     FM220200 34006KT P6SM SKC
     FM222000 31010G20KT P6SM SKC=



000
FTUS43 KGRR 212325
TAFLAN
TAF
KLAN 212325Z 2200/2224 06005KT P6SM SKC
     FM220200 33004KT P6SM SKC
     FM221000 35004KT P6SM SKC
     FM221500 03008KT P6SM SKC=



000
FTUS43 KGRR 212325
TAFBTL
TAF
KBTL 212325Z 2200/2224 04008KT P6SM SKC
     FM220200 30004KT P6SM FEW250
     FM221000 35004KT P6SM SKC
     FM221500 03008KT P6SM SKC=



000
FTUS43 KGRR 212325
TAFGRR
TAF
KGRR 212325Z 2200/2224 32004KT P6SM FEW090 SCT250
     FM221000 35004KT P6SM SKC
     FM221500 03008KT P6SM SKC=



000
FTUS43 KGRR 212325
TAFMKG
TAF
KMKG 212325Z 2200/2224 33014G20KT P6SM FEW100 SCT250
     FM220200 34006KT P6SM SKC
     FM222000 31010G20KT P6SM SKC=



000
FTUS43 KGRR 212325
TAFAZO
TAF
KAZO 212325Z 2200/2224 36009KT P6SM SKC
     FM221000 35004KT P6SM SKC
     FM221500 03008KT P6SM SKC=



000
FTUS43 KGRR 212325
TAFJXN
TAF
KJXN 212325Z 2200/2224 01006KT P6SM SKC
     FM220200 32004KT P6SM FEW250
     FM221100 34008KT P6SM FEW200
     FM221400 01010KT P6SM FEW250=



    US Dept of Commerce
    National Oceanic and Atmospheric Administration
    National Weather Service
    1325 East West Highway
    Silver Spring, MD 20910
    Page Author: NWS Internet Services Team
Disclaimer
Information Quality
Credits
Glossary
Privacy Policy
Freedom of Information Act (FOIA)
About Us
Career Opportunities